| time (UTC) | temp F | wind direction | speed knots | gust knots | rain 1hr in | rain 24hr in | rain mn in | humidity % | barometer mb |
| 20260510152905 | 69 | 236 | 2.6 | 3.5 | 0.00 | 0.43 | 0.00 | 73 | 1013.2 |
| 20260510151916 | 68 | 11 | 1.7 | 4.3 | 0.00 | 0.43 | 0.00 | 73 | 1013.1 |
| 20260510150907 | 67 | 294 | 2.6 | 6.1 | 0.00 | 0.43 | 0.00 | 77 | 1013.1 |
| 20260510145918 | 66 | 165 | 0.9 | 3.5 | 0.00 | 0.43 | 0.00 | 82 | 1013.1 |
| 20260510143900 | 64 | 36 | 0.9 | 3.5 | 0.00 | 0.43 | 0.00 | 85 | 1013.0 |
| 20260510142914 | 63 | 196 | 1.7 | 4.3 | 0.00 | 0.43 | 0.00 | 87 | 1013.1 |
| 20260510140916 | 62 | 202 | 0.0 | 3.5 | 0.00 | 0.43 | 0.00 | 89 | 1013.0 |
| 20260510135906 | 61 | 206 | 0.9 | 4.3 | 0.00 | 0.43 | 0.00 | 90 | 1012.8 |
| 20260510134915 | 61 | 193 | 3.5 | 6.1 | 0.00 | 0.43 | 0.00 | 91 | 1012.9 |
| 20260510132917 | 59 | 195 | 1.7 | 4.3 | 0.00 | 0.43 | 0.00 | 94 | 1012.9 |
| 20260510131906 | 58 | 191 | 0.0 | 2.6 | 0.00 | 0.43 | 0.00 | 96 | 1012.9 |
| 20260510125909 | 56 | 225 | 0.0 | 0.0 | 0.00 | 0.43 | 0.00 | 97 | 1013.1 |
| 20260510124904 | 55 | 94 | 0.0 | 0.0 | 0.00 | 0.43 | 0.00 | 97 | 1013.0 |
| 20260510122904 | 53 | 213 | 0.0 | 0.0 | 0.00 | 0.43 | 0.00 | 97 | 1012.5 |
| 20260510121914 | 53 | 141 | 0.0 | 0.0 | 0.00 | 0.43 | 0.00 | 97 | 1012.5 |
| 20260510115916 | 52 | 62 | 0.0 | 0.0 | 0.00 | 0.43 | 0.00 | 97 | 1012.4 |
| 20260510114906 | 51 | 62 | 0.0 | 0.0 | 0.00 | 0.43 | 0.00 | 97 | 1012.3 |
| 20260510113859 | 51 | 62 | 0.0 | 0.0 | 0.00 | 0.43 | 0.00 | 97 | 1012.3 |
| 20260510111902 | 51 | 62 | 0.0 | 0.0 | 0.00 | 0.43 | 0.00 | 97 | 1012.0 |
| 20260510110913 | 50 | 62 | 0.0 | 0.0 | 0.00 | 0.43 | 0.00 | 97 | 1012.1 |
| 20260510105907 | 50 | 62 | 0.0 | 0.0 | 0.00 | 0.43 | 0.00 | 97 | 1012.0 |
| 20260510104916 | 50 | 62 | 0.0 | 0.0 | 0.00 | 0.43 | 0.00 | 97 | 1012.0 |
| 20260510103907 | 49 | 62 | 0.0 | 0.0 | 0.00 | 0.43 | 0.00 | 96 | 1011.9 |
| 20260510102859 | 49 | 62 | 0.0 | 0.0 | 0.00 | 0.43 | 0.00 | 96 | 1011.8 |
| 20260510100901 | 49 | 62 | 0.0 | 0.0 | 0.00 | 0.43 | 0.00 | 96 | 1011.5 |
| 20260510094902 | 50 | 62 | 0.0 | 0.0 | 0.00 | 0.43 | 0.00 | 96 | 1011.6 |
| 20260510093913 | 50 | 62 | 0.0 | 0.0 | 0.00 | 0.43 | 0.00 | 96 | 1011.6 |
| 20260510092907 | 50 | 62 | 0.0 | 0.0 | 0.00 | 0.43 | 0.00 | 96 | 1011.6 |
| 20260510091916 | 50 | 62 | 0.0 | 0.0 | 0.00 | 0.43 | 0.00 | 96 | 1011.7 |
| 20260510090904 | 50 | 62 | 0.0 | 0.0 | 0.00 | 0.43 | 0.00 | 96 | 1011.7 |
| 20260510085914 | 50 | 62 | 0.0 | 0.0 | 0.00 | 0.43 | 0.00 | 96 | 1011.7 |
| 20260510084905 | 50 | 62 | 0.0 | 0.0 | 0.00 | 0.43 | 0.00 | 96 | 1011.8 |
| 20260510082906 | 50 | 62 | 0.0 | 0.0 | 0.00 | 0.43 | 0.00 | 96 | 1012.0 |
| 20260510081857 | 50 | 141 | 0.0 | 0.0 | 0.00 | 0.43 | 0.00 | 96 | 1012.0 |
| 20260510080907 | 50 | 141 | 0.0 | 0.0 | 0.00 | 0.43 | 0.00 | 96 | 1011.9 |
| 20260510075902 | 50 | 76 | 0.9 | 2.6 | 0.00 | 0.43 | 0.00 | 96 | 1012.0 |
| 20260510074914 | 50 | 117 | 1.7 | 7.0 | 0.00 | 0.43 | 0.00 | 96 | 1011.7 |
| 20260510073902 | 51 | 67 | 0.0 | 0.0 | 0.00 | 0.43 | 0.00 | 96 | 1011.1 |
| 20260510072911 | 51 | 67 | 0.0 | 0.0 | 0.00 | 0.43 | 0.00 | 96 | 1011.0 |
| 20260510071902 | 51 | 67 | 0.0 | 0.0 | 0.00 | 0.43 | 0.00 | 96 | 1011.0 |
| 20260510070912 | 51 | 67 | 0.0 | 0.0 | 0.00 | 0.43 | 0.00 | 96 | 1011.0 |
| 20260510065904 | 51 | 67 | 0.0 | 0.0 | 0.00 | 0.43 | 0.00 | 96 | 1011.2 |
| 20260510063906 | 52 | 67 | 0.0 | 0.0 | 0.00 | 0.43 | 0.00 | 96 | 1011.3 |
| 20260510061913 | 52 | 67 | 0.0 | 0.0 | 0.00 | 0.43 | 0.00 | 96 | 1011.6 |
| 20260510060902 | 52 | 67 | 0.0 | 0.0 | 0.00 | 0.43 | 0.00 | 96 | 1011.4 |
| 20260510055911 | 52 | 67 | 0.0 | 0.0 | 0.00 | 0.43 | 0.00 | 96 | 1011.1 |
| 20260510054901 | 51 | 67 | 0.0 | 0.0 | 0.00 | 0.43 | 0.00 | 96 | 1010.9 |
| 20260510053911 | 51 | 67 | 0.0 | 0.0 | 0.00 | 0.43 | 0.00 | 96 | 1011.1 |
| 20260510052901 | 51 | 67 | 0.0 | 0.0 | 0.00 | 0.43 | 0.00 | 96 | 1011.1 |
| 20260510051912 | 51 | 67 | 0.0 | 0.0 | 0.00 | 0.43 | 0.00 | 96 | 1011.2 |
| 20260510045914 | 51 | 17 | 0.0 | 0.0 | 0.00 | 0.43 | 0.00 | 96 | 1011.2 |
| 20260510044904 | 51 | 17 | 0.0 | 0.0 | 0.00 | 0.43 | 0.00 | 96 | 1011.1 |
| 20260510042910 | 51 | 17 | 0.0 | 0.0 | 0.00 | 0.43 | 0.00 | 96 | 1011.2 |
| 20260510041901 | 51 | 17 | 0.0 | 0.0 | 0.00 | 0.43 | 0.00 | 96 | 1011.2 |
| 20260510040911 | 51 | 17 | 0.0 | 0.0 | 0.00 | 0.43 | 0.00 | 96 | 1011.3 |
| 20260510035901 | 51 | 17 | 0.0 | 0.0 | 0.00 | 0.43 | 0.43 | 96 | 1011.3 |
| 20260510034911 | 51 | 17 | 0.0 | 0.0 | 0.00 | 0.43 | 0.43 | 96 | 1011.2 |
| 20260510033900 | 50 | 17 | 0.0 | 0.0 | 0.00 | 0.43 | 0.43 | 96 | 1011.0 |
| 20260510032909 | 50 | 17 | 0.0 | 0.0 | 0.00 | 0.43 | 0.43 | 96 | 1010.9 |
| 20260510030857 | 50 | 17 | 0.0 | 0.0 | 0.00 | 0.43 | 0.43 | 95 | 1011.0 |
| 20260510025906 | 50 | 17 | 0.0 | 0.0 | 0.00 | 0.43 | 0.43 | 95 | 1010.9 |
| 20260510024916 | 51 | 17 | 0.0 | 0.0 | 0.00 | 0.43 | 0.43 | 95 | 1010.8 |
| 20260510023906 | 50 | 17 | 0.0 | 0.0 | 0.00 | 0.43 | 0.43 | 95 | 1010.9 |
| 20260510022915 | 51 | 17 | 0.0 | 0.0 | 0.00 | 0.43 | 0.43 | 95 | 1010.9 |
| 20260510020916 | 51 | 17 | 0.0 | 0.0 | 0.00 | 0.43 | 0.43 | 95 | 1010.9 |
| 20260510015906 | 50 | 17 | 0.0 | 1.7 | 0.00 | 0.43 | 0.43 | 95 | 1011.0 |
| 20260510014859 | 50 | 92 | 0.0 | 0.0 | 0.00 | 0.43 | 0.43 | 94 | 1011.0 |
| 20260510013911 | 50 | 92 | 0.0 | 0.0 | 0.00 | 0.43 | 0.43 | 94 | 1010.9 |
| 20260510012905 | 51 | 92 | 0.0 | 0.0 | 0.00 | 0.43 | 0.43 | 94 | 1011.0 |
| 20260510011915 | 52 | 92 | 0.0 | 0.0 | 0.00 | 0.43 | 0.43 | 94 | 1010.9 |
| 20260510010905 | 52 | 92 | 0.0 | 0.0 | 0.00 | 0.43 | 0.43 | 94 | 1010.9 |
| 20260510005915 | 53 | 92 | 0.0 | 0.0 | 0.00 | 0.43 | 0.43 | 94 | 1010.7 |
| 20260510004906 | 53 | 92 | 0.0 | 0.0 | 0.00 | 0.43 | 0.43 | 94 | 1010.6 |
| 20260510003919 | 54 | 92 | 0.0 | 0.0 | 0.00 | 0.43 | 0.43 | 94 | 1010.4 |
| 20260510002909 | 54 | 92 | 0.0 | 0.0 | 0.00 | 0.43 | 0.43 | 94 | 1010.2 |
| 20260510001919 | 54 | 92 | 0.0 | 0.0 | 0.00 | 0.43 | 0.43 | 94 | 1010.2 |
| 20260510000914 | 54 | 92 | 0.0 | 0.0 | 0.00 | 0.43 | 0.43 | 94 | 1010.3 |
| 20260509235904 | 54 | 93 | 0.0 | 0.9 | 0.00 | 0.43 | 0.43 | 93 | 1010.2 |
| 20260509234914 | 54 | 93 | 0.0 | 1.7 | 0.00 | 0.43 | 0.43 | 93 | 1010.4 |
| 20260509233903 | 55 | 101 | 0.0 | 3.5 | 0.00 | 0.43 | 0.43 | 93 | 1010.1 |
| 20260509232913 | 55 | 93 | 0.9 | 5.2 | 0.00 | 0.43 | 0.43 | 93 | 1010.0 |
| 20260509231921 | 55 | 127 | 2.6 | 6.1 | 0.00 | 0.43 | 0.43 | 92 | 1009.9 |
| 20260509230911 | 56 | 109 | 0.9 | 4.3 | 0.00 | 0.43 | 0.43 | 92 | 1009.8 |
| 20260509224913 | 56 | 107 | 1.7 | 5.2 | 0.00 | 0.43 | 0.43 | 92 | 1009.9 |
| 20260509223907 | 57 | 127 | 3.5 | 5.2 | 0.00 | 0.43 | 0.43 | 91 | 1009.9 |
| 20260509213916 | 57 | 122 | 0.0 | 2.6 | 0.02 | 0.43 | 0.43 | 93 | 1010.0 |
| 20260509212924 | 57 | 194 | 0.0 | 0.0 | 0.06 | 0.43 | 0.43 | 93 | 1010.0 |
| 20260509211914 | 56 | 194 | 0.0 | 2.6 | 0.06 | 0.42 | 0.42 | 94 | 1010.1 |
| 20260509210924 | 55 | 194 | 0.0 | 2.6 | 0.07 | 0.42 | 0.42 | 94 | 1010.1 |
| 20260509205914 | 54 | 194 | 0.0 | 0.0 | 0.09 | 0.42 | 0.42 | 94 | 1010.0 |
| 20260509204924 | 54 | 194 | 0.0 | 2.6 | 0.11 | 0.42 | 0.42 | 94 | 1010.2 |
| 20260509203917 | 54 | 38 | 0.0 | 0.0 | 0.14 | 0.41 | 0.41 | 94 | 1010.2 |
| 20260509202926 | 54 | 38 | 0.0 | 0.0 | 0.12 | 0.37 | 0.37 | 94 | 1010.3 |
| 20260509201915 | 54 | 38 | 0.0 | 0.0 | 0.12 | 0.36 | 0.36 | 94 | 1010.1 |
| 20260509200924 | 54 | 38 | 0.0 | 0.0 | 0.13 | 0.35 | 0.35 | 93 | 1010.2 |
| 20260509195914 | 54 | 38 | 0.0 | 0.0 | 0.12 | 0.33 | 0.33 | 93 | 1010.3 |
| 20260509194923 | 54 | 316 | 0.0 | 0.0 | 0.13 | 0.31 | 0.31 | 93 | 1010.8 |
| 20260509192925 | 55 | 270 | 0.9 | 2.6 | 0.12 | 0.25 | 0.25 | 93 | 1011.2 |
| 20260509191913 | 55 | 239 | 1.7 | 4.3 | 0.13 | 0.24 | 0.24 | 93 | 1011.2 |
| 20260509190925 | 55 | 87 | 0.0 | 0.0 | 0.13 | 0.22 | 0.22 | 93 | 1011.2 |
| 20260509185918 | 55 | 185 | 0.0 | 0.0 | 0.13 | 0.21 | 0.21 | 93 | 1011.3 |
| 20260509184909 | 55 | 166 | 0.0 | 0.0 | 0.12 | 0.18 | 0.18 | 93 | 1011.3 |
| 20260509183921 | 55 | 166 | 0.0 | 0.9 | 0.12 | 0.16 | 0.16 | 92 | 1011.4 |
| 20260509182911 | 56 | 215 | 0.9 | 1.7 | 0.12 | 0.13 | 0.13 | 92 | 1011.3 |
| 20260509181920 | 56 | 75 | 0.0 | 0.0 | 0.11 | 0.11 | 0.11 | 91 | 1011.2 |
| 20260509174914 | 57 | 164 | 0.0 | 0.0 | 0.06 | 0.06 | 0.06 | 88 | 1011.5 |
| 20260509173924 | 57 | 241 | 0.0 | 2.6 | 0.04 | 0.04 | 0.04 | 87 | 1011.8 |
| 20260509172918 | 58 | 198 | 0.9 | 1.7 | 0.01 | 0.01 | 0.01 | 86 | 1011.6 |
| 20260509170919 | 60 | 247 | 0.0 | 2.6 | 0.00 | 0.00 | 0.00 | 81 | 1011.6 |
| 20260509165928 | 60 | 289 | 1.7 | 5.2 | 0.00 | 0.00 | 0.00 | 79 | 1011.4 |
| 20260509164917 | 60 | 306 | 1.7 | 5.2 | 0.00 | 0.00 | 0.00 | 79 | 1011.4 |
| 20260509163925 | 61 | 214 | 2.6 | 4.3 | 0.00 | 0.00 | 0.00 | 76 | 1011.6 |
| 20260509162915 | 61 | 310 | 2.6 | 5.2 | 0.00 | 0.00 | 0.00 | 77 | 1011.4 |
| 20260509161923 | 61 | 258 | 1.7 | 3.5 | 0.00 | 0.00 | 0.00 | 80 | 1011.5 |
| 20260509160933 | 61 | 265 | 1.7 | 7.0 | 0.00 | 0.00 | 0.00 | 79 | 1011.6 |
| 20260509155923 | 61 | 248 | 2.6 | 5.2 | 0.00 | 0.00 | 0.00 | 78 | 1011.6 |
| 20260509154917 | 61 | 222 | 1.7 | 4.3 | 0.00 | 0.00 | 0.00 | 81 | 1011.5 |
| 20260509153927 | 60 | 194 | 2.6 | 5.2 | 0.00 | 0.00 | 0.00 | 83 | 1011.7 |